Time;durP1;ratioP1;P1;durP2;ratioP2;P2;SDS_P1;SDS_P2;PMS_P1;PMS_P2;Temp;Humidity;BMP_temperature;BMP_pressure;BME280_temperature;BME280_humidity;BME280_pressure;Samples;Min_cycle;Max_cycle;Signal;HPM_P1;HPM_P2
2022/03/23 00:01:19;;;;;;;26.05;20.98;;;;;;;;;;5018569;28;20488;-82
2022/03/23 00:03:46;;;;;;;27.08;21.38;;;;;;;;;;5022209;28;20976;-83
2022/03/23 00:06:14;;;;;;;28.35;20.80;;;;;;;;;;5025791;28;20436;-84
2022/03/23 00:08:41;;;;;;;28.40;21.20;;;;;;;;;;5023046;28;20454;-84
2022/03/23 00:11:07;;;;;;;26.15;20.52;;;;;;;;;;5023679;28;20438;-84
2022/03/23 00:13:33;;;;;;;28.95;21.48;;;;;;;;;;5023568;28;20422;-84
2022/03/23 00:16:00;;;;;;;29.48;21.65;;;;;;;;;;5025176;28;20522;-84
2022/03/23 00:18:26;;;;;;;28.80;21.52;;;;;;;;;;5019734;28;20444;-81
2022/03/23 00:20:52;;;;;;;28.00;21.27;;;;;;;;;;5025295;28;20516;-82
2022/03/23 00:23:20;;;;;;;27.77;22.05;;;;;;;;;;5025158;28;20776;-83
2022/03/23 00:25:46;;;;;;;27.17;21.30;;;;;;;;;;5027682;28;20485;-84
2022/03/23 00:28:13;;;;;;;29.85;21.20;;;;;;;;;;5027793;28;20929;-83
2022/03/23 00:30:40;;;;;;;26.95;20.60;;;;;;;;;;5028372;28;20428;-84
2022/03/23 00:33:06;;;;;;;26.50;20.92;;;;;;;;;;5026687;28;20416;-83
2022/03/23 00:35:33;;;;;;;27.83;20.20;;;;;;;;;;5024766;28;20438;-81
2022/03/23 00:37:59;;;;;;;27.95;21.00;;;;;;;;;;5024399;28;20423;-79
2022/03/23 00:40:28;;;;;;;28.48;21.38;;;;;;;;;;5025725;28;20434;-82
2022/03/23 00:42:54;;;;;;;26.45;21.50;;;;;;;;;;5022860;28;21021;-82
2022/03/23 00:45:20;;;;;;;28.13;21.20;;;;;;;;;;5024576;28;20854;-83
2022/03/23 00:47:48;;;;;;;28.02;20.50;;;;;;;;;;5024278;28;20442;-83
2022/03/23 00:50:14;;;;;;;27.57;20.73;;;;;;;;;;5023919;28;20444;-82
2022/03/23 00:52:40;;;;;;;27.55;21.05;;;;;;;;;;5025025;28;20788;-83
2022/03/23 00:55:09;;;;;;;29.55;21.30;;;;;;;;;;5025635;28;20428;-84
2022/03/23 00:57:37;;;;;;;24.90;19.75;;;;;;;;;;5024263;28;20467;-83
2022/03/23 01:00:03;;;;;;;26.33;20.40;;;;;;;;;;5025923;28;21011;-81
2022/03/23 01:02:30;;;;;;;27.47;20.20;;;;;;;;;;5024552;28;21167;-84
2022/03/23 01:04:56;;;;;;;24.45;19.83;;;;;;;;;;5024204;28;20433;-84
2022/03/23 01:07:22;;;;;;;29.77;22.00;;;;;;;;;;5026340;28;20461;-82
2022/03/23 01:09:48;;;;;;;28.45;20.80;;;;;;;;;;5024905;28;20959;-82
2022/03/23 01:12:15;;;;;;;27.52;20.67;;;;;;;;;;5026634;28;20492;-83
2022/03/23 01:14:42;;;;;;;25.13;19.90;;;;;;;;;;5024121;28;20434;-83
2022/03/23 01:17:09;;;;;;;28.80;21.42;;;;;;;;;;5025591;28;20435;-83
2022/03/23 01:19:36;;;;;;;23.83;19.83;;;;;;;;;;5023385;28;20458;-81
2022/03/23 01:22:04;;;;;;;27.00;20.65;;;;;;;;;;5024702;28;20526;-84
2022/03/23 01:24:31;;;;;;;29.93;22.10;;;;;;;;;;5026469;28;20514;-83
2022/03/23 01:26:57;;;;;;;29.52;22.13;;;;;;;;;;5028031;28;20431;-83
2022/03/23 01:29:23;;;;;;;29.27;23.17;;;;;;;;;;5025024;28;20518;-83
2022/03/23 01:31:51;;;;;;;27.83;21.95;;;;;;;;;;5027646;28;20431;-82
2022/03/23 01:34:17;;;;;;;29.10;21.52;;;;;;;;;;5027489;28;20575;-85
2022/03/23 01:36:43;;;;;;;30.35;22.55;;;;;;;;;;5027300;28;20853;-85
2022/03/23 01:39:10;;;;;;;29.70;22.05;;;;;;;;;;5027568;28;20481;-85
2022/03/23 01:41:36;;;;;;;29.60;23.10;;;;;;;;;;5023858;28;20430;-81
2022/03/23 01:44:11;;;;;;;27.95;22.05;;;;;;;;;;5023190;28;21049;-83
2022/03/23 01:46:37;;;;;;;28.20;21.55;;;;;;;;;;5022394;28;20439;-84
2022/03/23 01:49:05;;;;;;;28.98;22.83;;;;;;;;;;5023246;28;20427;-82
2022/03/23 01:51:31;;;;;;;29.35;23.00;;;;;;;;;;5021607;28;20486;-82
2022/03/23 01:53:57;;;;;;;27.27;21.92;;;;;;;;;;5023568;28;20482;-81
2022/03/23 01:56:26;;;;;;;29.70;22.70;;;;;;;;;;5023754;28;20431;-81
2022/03/23 01:58:52;;;;;;;30.38;22.58;;;;;;;;;;5021000;28;20514;-81
2022/03/23 02:01:18;;;;;;;32.25;23.33;;;;;;;;;;5023177;28;20435;-81
2022/03/23 02:03:45;;;;;;;28.17;22.07;;;;;;;;;;5024599;28;20511;-82
2022/03/23 02:06:12;;;;;;;27.48;22.80;;;;;;;;;;5025626;28;20434;-83
2022/03/23 02:08:38;;;;;;;27.50;21.80;;;;;;;;;;5023744;28;20494;-82
2022/03/23 02:11:05;;;;;;;27.25;22.02;;;;;;;;;;5024550;28;20417;-82
2022/03/23 02:13:31;;;;;;;27.92;21.33;;;;;;;;;;5138831;22;20404;-82
2022/03/23 02:15:58;;;;;;;29.05;23.15;;;;;;;;;;5063371;28;20462;-82
2022/03/23 02:18:24;;;;;;;27.48;21.85;;;;;;;;;;5061115;28;20410;-82
2022/03/23 02:20:50;;;;;;;28.52;21.63;;;;;;;;;;5063898;28;20427;-81
2022/03/23 02:23:18;;;;;;;28.30;22.33;;;;;;;;;;5063262;28;20430;-82
2022/03/23 02:25:45;;;;;;;29.48;22.70;;;;;;;;;;5062940;28;20440;-80
2022/03/23 02:28:12;;;;;;;31.37;22.93;;;;;;;;;;5063019;28;20542;-82
2022/03/23 02:30:39;;;;;;;31.58;22.27;;;;;;;;;;5061188;28;20431;-82
2022/03/23 02:33:05;;;;;;;26.88;21.40;;;;;;;;;;5062383;28;20410;-82
2022/03/23 02:35:31;;;;;;;29.77;21.98;;;;;;;;;;5063523;28;20432;-81
2022/03/23 02:37:58;;;;;;;28.83;22.23;;;;;;;;;;5062510;28;20415;-82
2022/03/23 02:40:25;;;;;;;28.23;21.70;;;;;;;;;;5061804;28;20434;-82
2022/03/23 02:42:52;;;;;;;25.77;21.45;;;;;;;;;;5062249;28;20495;-82
2022/03/23 02:45:18;;;;;;;30.38;22.40;;;;;;;;;;5062840;28;20431;-82
2022/03/23 02:47:44;;;;;;;27.60;22.35;;;;;;;;;;5062175;28;20797;-81
2022/03/23 02:50:11;;;;;;;28.85;22.70;;;;;;;;;;5062103;28;20506;-81
2022/03/23 03:01:51;;;;;;;26.30;21.27;;;;;;;;;;5061576;28;20544;-81
2022/03/23 03:03:46;;;;;;;27.55;22.25;;;;;;;;;;5062337;28;21084;-81
2022/03/23 03:06:13;;;;;;;31.05;23.52;;;;;;;;;;5065411;28;20952;-80
2022/03/23 03:08:48;;;;;;;26.33;21.92;;;;;;;;;;5064537;28;20922;-81
2022/03/23 03:11:15;;;;;;;26.47;21.33;;;;;;;;;;5063533;28;20432;-81
2022/03/23 03:13:44;;;;;;;29.77;22.88;;;;;;;;;;5063596;28;20428;-81
2022/03/23 03:16:10;;;;;;;31.00;21.83;;;;;;;;;;5063833;28;20431;-81
2022/03/23 03:18:36;;;;;;;28.58;22.50;;;;;;;;;;5064645;28;20496;-81
2022/03/23 03:21:04;;;;;;;29.35;22.42;;;;;;;;;;5066131;28;20427;-81
2022/03/23 03:23:30;;;;;;;28.40;22.83;;;;;;;;;;5063041;28;20449;-81
2022/03/23 03:25:56;;;;;;;31.33;22.05;;;;;;;;;;5064380;28;20447;-81
2022/03/23 03:28:23;;;;;;;26.25;22.05;;;;;;;;;;5063506;28;20827;-80
2022/03/23 03:30:50;;;;;;;31.23;22.63;;;;;;;;;;5063913;28;20912;-81
2022/03/23 03:33:16;;;;;;;28.30;21.55;;;;;;;;;;5064139;28;20520;-81
2022/03/23 03:35:43;;;;;;;26.77;22.42;;;;;;;;;;5062197;28;21293;-81
2022/03/23 03:38:09;;;;;;;33.35;23.05;;;;;;;;;;5060664;28;20425;-79
2022/03/23 03:40:35;;;;;;;26.90;21.10;;;;;;;;;;5063424;28;20433;-81
2022/03/23 03:43:02;;;;;;;28.13;21.60;;;;;;;;;;5063626;28;20471;-80
2022/03/23 03:45:29;;;;;;;29.23;22.70;;;;;;;;;;5066519;28;20958;-81
2022/03/23 03:47:56;;;;;;;27.10;21.90;;;;;;;;;;5062908;28;20427;-81
2022/03/23 03:50:23;;;;;;;28.15;21.67;;;;;;;;;;5066208;28;20513;-81
2022/03/23 03:52:49;;;;;;;31.38;22.15;;;;;;;;;;5061939;28;20476;-80
2022/03/23 03:55:15;;;;;;;28.67;22.80;;;;;;;;;;5062280;28;20514;-81
2022/03/23 03:57:41;;;;;;;29.80;23.02;;;;;;;;;;5062271;28;20425;-81
2022/03/23 04:00:08;;;;;;;29.40;22.37;;;;;;;;;;5064262;28;20432;-81
2022/03/23 04:02:34;;;;;;;27.40;22.03;;;;;;;;;;5066359;28;20458;-80
2022/03/23 04:05:02;;;;;;;27.50;22.40;;;;;;;;;;5069549;28;20433;-81
2022/03/23 04:07:28;;;;;;;31.58;23.00;;;;;;;;;;5069495;28;20431;-81
2022/03/23 04:09:55;;;;;;;29.65;23.08;;;;;;;;;;5066153;28;22723;-81
2022/03/23 04:12:21;;;;;;;32.67;23.90;;;;;;;;;;5069496;28;20460;-81
2022/03/23 04:14:47;;;;;;;31.30;22.90;;;;;;;;;;5066645;28;20427;-79
2022/03/23 04:17:14;;;;;;;27.60;22.13;;;;;;;;;;5069522;28;20509;-80
2022/03/23 04:19:40;;;;;;;27.50;22.57;;;;;;;;;;5068175;28;20475;-81
2022/03/23 04:22:08;;;;;;;26.30;21.60;;;;;;;;;;5067996;28;20477;-81
2022/03/23 04:24:34;;;;;;;29.63;23.38;;;;;;;;;;5064090;28;20445;-80
2022/03/23 04:27:00;;;;;;;29.55;23.52;;;;;;;;;;5066004;28;20434;-81
2022/03/23 04:29:27;;;;;;;33.17;22.65;;;;;;;;;;5066663;28;20425;-81
2022/03/23 04:31:53;;;;;;;30.58;23.15;;;;;;;;;;5066866;28;20429;-80
2022/03/23 04:34:19;;;;;;;28.48;23.17;;;;;;;;;;5065843;28;20433;-80
2022/03/23 04:36:46;;;;;;;28.92;22.80;;;;;;;;;;5068181;28;20421;-79
2022/03/23 04:39:13;;;;;;;30.20;23.77;;;;;;;;;;5060447;28;20455;-81
2022/03/23 04:41:40;;;;;;;29.70;22.58;;;;;;;;;;5067063;28;21066;-81
2022/03/23 04:44:07;;;;;;;28.50;22.63;;;;;;;;;;5064600;28;20420;-81
2022/03/23 04:46:33;;;;;;;30.98;24.15;;;;;;;;;;5067134;28;20467;-81
2022/03/23 04:48:59;;;;;;;32.00;23.37;;;;;;;;;;5063276;28;20452;-80
2022/03/23 04:51:25;;;;;;;32.17;23.05;;;;;;;;;;5066176;28;20427;-80
2022/03/23 04:53:52;;;;;;;26.33;21.05;;;;;;;;;;5064765;28;20471;-81
2022/03/23 04:56:19;;;;;;;29.35;22.13;;;;;;;;;;5065575;28;20431;-81
2022/03/23 04:58:45;;;;;;;28.85;22.30;;;;;;;;;;5064410;28;20425;-80
2022/03/23 05:01:12;;;;;;;27.80;21.00;;;;;;;;;;5063481;28;20431;-80
2022/03/23 05:03:38;;;;;;;29.15;22.75;;;;;;;;;;5064816;28;20422;-81
2022/03/23 05:06:04;;;;;;;28.98;22.60;;;;;;;;;;5067272;28;20433;-79
2022/03/23 05:08:31;;;;;;;29.67;23.10;;;;;;;;;;5064986;28;20896;-80
2022/03/23 05:10:57;;;;;;;31.88;22.45;;;;;;;;;;5065694;28;20434;-79
2022/03/23 05:13:24;;;;;;;28.55;22.10;;;;;;;;;;5065972;28;20426;-81
2022/03/23 05:15:51;;;;;;;31.23;22.67;;;;;;;;;;5067163;28;20427;-80
2022/03/23 05:18:17;;;;;;;30.92;23.65;;;;;;;;;;5063203;28;20448;-81
2022/03/23 05:20:43;;;;;;;32.20;23.98;;;;;;;;;;5067375;28;20455;-81
2022/03/23 05:23:09;;;;;;;28.60;22.85;;;;;;;;;;5066976;28;20428;-81
2022/03/23 05:25:36;;;;;;;30.58;22.40;;;;;;;;;;5066726;28;20436;-80
2022/03/23 05:28:02;;;;;;;32.70;23.95;;;;;;;;;;5064508;28;20438;-80
2022/03/23 05:30:30;;;;;;;29.45;23.42;;;;;;;;;;5061798;28;20730;-80
2022/03/23 05:32:56;;;;;;;31.70;23.90;;;;;;;;;;5060648;28;20442;-81
2022/03/23 05:35:22;;;;;;;31.90;24.57;;;;;;;;;;5068127;28;20441;-81
2022/03/23 05:37:49;;;;;;;31.85;24.35;;;;;;;;;;5060512;28;20487;-80
2022/03/23 05:40:15;;;;;;;31.67;23.60;;;;;;;;;;5064748;28;20496;-79
2022/03/23 05:42:41;;;;;;;30.30;23.53;;;;;;;;;;5063245;28;20596;-81
2022/03/23 05:45:08;;;;;;;32.63;24.25;;;;;;;;;;5066756;28;20433;-80
2022/03/23 05:47:36;;;;;;;32.25;24.02;;;;;;;;;;5065044;28;20844;-81
2022/03/23 05:50:02;;;;;;;31.77;23.47;;;;;;;;;;5063797;28;20510;-81
2022/03/23 05:52:28;;;;;;;30.00;23.40;;;;;;;;;;5063223;28;20479;-81
2022/03/23 05:54:55;;;;;;;33.00;24.23;;;;;;;;;;5060409;28;20429;-80
2022/03/23 05:57:21;;;;;;;29.75;24.52;;;;;;;;;;5059648;28;20471;-80
2022/03/23 05:59:48;;;;;;;32.60;24.48;;;;;;;;;;5058987;28;20485;-79
2022/03/23 06:02:14;;;;;;;34.13;24.55;;;;;;;;;;5068111;28;20811;-79
2022/03/23 06:04:42;;;;;;;30.77;24.10;;;;;;;;;;5059011;28;20488;-80
2022/03/23 06:07:08;;;;;;;31.15;24.80;;;;;;;;;;5064308;28;20441;-80
2022/03/23 06:09:34;;;;;;;31.95;24.67;;;;;;;;;;5062167;28;20447;-79
2022/03/23 06:12:04;;;;;;;35.20;25.73;;;;;;;;;;5062175;28;20475;-80
2022/03/23 06:14:30;;;;;;;34.13;24.35;;;;;;;;;;5060768;28;20431;-80
2022/03/23 06:16:56;;;;;;;34.65;24.73;;;;;;;;;;5065811;28;20480;-81
2022/03/23 06:19:23;;;;;;;33.08;25.15;;;;;;;;;;5061829;28;20415;-81
2022/03/23 06:21:50;;;;;;;34.67;25.58;;;;;;;;;;5064567;28;20496;-80
2022/03/23 06:24:16;;;;;;;33.40;25.38;;;;;;;;;;5064733;28;20423;-80
2022/03/23 06:26:43;;;;;;;34.00;25.17;;;;;;;;;;5065647;28;20427;-80
2022/03/23 06:29:09;;;;;;;30.90;24.95;;;;;;;;;;5059607;28;20437;-81
2022/03/23 06:31:35;;;;;;;29.93;24.20;;;;;;;;;;5061508;28;20485;-80
2022/03/23 06:34:04;;;;;;;31.55;24.20;;;;;;;;;;5065112;28;20421;-80
2022/03/23 06:36:30;;;;;;;30.13;24.20;;;;;;;;;;5059727;28;20861;-81
2022/03/23 06:38:58;;;;;;;30.92;24.73;;;;;;;;;;5062612;28;20432;-81
2022/03/23 06:41:24;;;;;;;31.27;24.23;;;;;;;;;;5064829;28;20974;-81
2022/03/23 06:43:50;;;;;;;30.80;23.52;;;;;;;;;;5065038;28;20428;-80
2022/03/23 06:46:16;;;;;;;29.45;23.00;;;;;;;;;;5062757;28;20435;-80
2022/03/23 06:48:42;;;;;;;32.17;24.33;;;;;;;;;;5065040;28;20428;-80
2022/03/23 06:51:09;;;;;;;32.97;24.33;;;;;;;;;;5064823;28;20943;-81
2022/03/23 06:53:35;;;;;;;30.77;23.73;;;;;;;;;;5067176;28;20433;-80
2022/03/23 06:56:04;;;;;;;31.52;24.08;;;;;;;;;;5067624;28;20459;-80
2022/03/23 06:58:30;;;;;;;32.38;24.10;;;;;;;;;;5066668;28;20799;-80
2022/03/23 07:00:57;;;;;;;28.80;22.40;;;;;;;;;;5067029;28;20489;-80
2022/03/23 07:03:23;;;;;;;31.70;24.70;;;;;;;;;;5064904;28;20421;-80
2022/03/23 07:05:50;;;;;;;30.13;24.08;;;;;;;;;;5063871;28;20433;-80
2022/03/23 07:11:00;;;;;;;30.85;23.98;;;;;;;;;;5067842;28;20424;-81
2022/03/23 07:13:27;;;;;;;27.38;22.13;;;;;;;;;;5064994;28;20425;-80
2022/03/23 07:15:54;;;;;;;29.90;22.83;;;;;;;;;;5064111;28;20459;-81
2022/03/23 07:18:20;;;;;;;24.50;21.30;;;;;;;;;;5065035;28;20434;-80
2022/03/23 07:20:46;;;;;;;28.75;21.30;;;;;;;;;;5063481;28;20427;-80
2022/03/23 07:23:13;;;;;;;31.27;21.93;;;;;;;;;;5063155;28;20420;-81
2022/03/23 07:25:39;;;;;;;28.05;21.77;;;;;;;;;;5068249;28;20510;-81
2022/03/23 07:28:06;;;;;;;27.38;21.52;;;;;;;;;;5060635;28;20428;-80
2022/03/23 07:30:35;;;;;;;27.60;21.40;;;;;;;;;;5065489;28;20462;-80
2022/03/23 07:33:01;;;;;;;27.17;21.42;;;;;;;;;;5060967;28;20523;-81
2022/03/23 07:35:27;;;;;;;27.40;22.60;;;;;;;;;;5066922;28;20804;-81
2022/03/23 07:37:53;;;;;;;27.75;21.85;;;;;;;;;;5066000;28;20455;-80
2022/03/23 07:40:20;;;;;;;26.00;21.98;;;;;;;;;;5062211;28;20459;-80
2022/03/23 07:42:46;;;;;;;26.83;22.75;;;;;;;;;;5064308;28;20518;-80
2022/03/23 07:45:13;;;;;;;24.90;22.23;;;;;;;;;;5060573;28;21084;-81
2022/03/23 07:47:41;;;;;;;28.80;22.70;;;;;;;;;;5062327;28;20443;-79
2022/03/23 07:50:08;;;;;;;27.05;22.77;;;;;;;;;;5063597;28;20473;-81
2022/03/23 07:52:34;;;;;;;26.47;22.77;;;;;;;;;;5065130;28;20433;-80
2022/03/23 07:55:00;;;;;;;25.58;22.30;;;;;;;;;;5064465;28;20467;-81
2022/03/23 07:57:27;;;;;;;25.48;22.13;;;;;;;;;;5058483;28;20512;-81
2022/03/23 07:59:55;;;;;;;26.38;22.70;;;;;;;;;;5062702;28;21117;-80
2022/03/23 08:02:21;;;;;;;27.95;22.45;;;;;;;;;;5052237;28;20417;-80
2022/03/23 08:04:49;;;;;;;25.55;22.63;;;;;;;;;;5043510;28;20431;-80
2022/03/23 08:07:15;;;;;;;24.60;22.10;;;;;;;;;;5054030;28;20483;-81
2022/03/23 08:09:41;;;;;;;25.50;21.38;;;;;;;;;;5059619;28;20431;-80
2022/03/23 08:12:07;;;;;;;25.92;21.70;;;;;;;;;;5062990;28;20421;-80
2022/03/23 08:14:34;;;;;;;24.48;21.98;;;;;;;;;;5066602;22;20523;-79
2022/03/23 08:17:00;;;;;;;24.20;21.40;;;;;;;;;;5042608;28;20457;-78
2022/03/23 08:19:26;;;;;;;22.47;20.03;;;;;;;;;;5054787;28;20591;-79
2022/03/23 08:21:54;;;;;;;26.92;21.90;;;;;;;;;;5055124;28;20463;-80
2022/03/23 08:24:20;;;;;;;25.60;21.90;;;;;;;;;;5031904;28;20484;-79
2022/03/23 08:26:47;;;;;;;24.08;21.50;;;;;;;;;;5021889;28;20503;-80
2022/03/23 08:29:13;;;;;;;23.55;21.20;;;;;;;;;;5016850;28;20439;-79
2022/03/23 08:31:40;;;;;;;23.88;21.30;;;;;;;;;;5019208;28;20843;-79
2022/03/23 08:34:07;;;;;;;23.40;21.10;;;;;;;;;;5020135;28;20932;-78
2022/03/23 08:36:33;;;;;;;24.58;21.38;;;;;;;;;;5021725;28;20471;-79
2022/03/23 08:39:01;;;;;;;22.90;20.48;;;;;;;;;;5008852;28;20442;-79
2022/03/23 08:41:28;;;;;;;21.23;19.02;;;;;;;;;;5021837;28;20435;-79
2022/03/23 08:43:54;;;;;;;23.40;20.90;;;;;;;;;;5020897;28;20538;-79
2022/03/23 08:46:21;;;;;;;23.13;20.63;;;;;;;;;;5022589;28;20873;-79
2022/03/23 08:48:49;;;;;;;23.48;21.05;;;;;;;;;;5021956;28;20426;-80
2022/03/23 08:51:15;;;;;;;23.50;21.02;;;;;;;;;;5024981;28;20437;-79
2022/03/23 08:53:42;;;;;;;23.30;20.90;;;;;;;;;;5026213;28;20481;-79
2022/03/23 08:56:10;;;;;;;23.38;20.67;;;;;;;;;;5026435;28;20439;-79
2022/03/23 08:58:37;;;;;;;23.50;20.90;;;;;;;;;;5020363;28;20549;-80
2022/03/23 09:01:03;;;;;;;23.70;20.55;;;;;;;;;;5024801;28;20437;-78
2022/03/23 09:03:29;;;;;;;23.53;21.13;;;;;;;;;;5026019;28;20836;-79
2022/03/23 09:05:56;;;;;;;21.75;19.35;;;;;;;;;;5026748;28;20429;-79
2022/03/23 09:08:22;;;;;;;22.75;20.10;;;;;;;;;;5025439;28;20434;-79
2022/03/23 09:10:48;;;;;;;22.85;20.65;;;;;;;;;;5027634;28;20434;-80
2022/03/23 09:13:16;;;;;;;22.30;19.90;;;;;;;;;;5027267;28;20419;-79
2022/03/23 09:15:42;;;;;;;23.42;20.92;;;;;;;;;;5028390;28;20463;-79
2022/03/23 09:18:08;;;;;;;22.50;20.20;;;;;;;;;;5024825;28;20443;-79
2022/03/23 09:20:35;;;;;;;23.30;20.80;;;;;;;;;;5027836;28;20528;-80
2022/03/23 09:23:01;;;;;;;22.38;20.17;;;;;;;;;;5027702;28;20924;-79
2022/03/23 09:25:27;;;;;;;22.83;20.45;;;;;;;;;;5027730;28;20437;-80
2022/03/23 09:27:54;;;;;;;23.80;20.65;;;;;;;;;;5030202;28;20485;-79
2022/03/23 09:30:21;;;;;;;23.60;21.30;;;;;;;;;;5023343;28;20442;-80
2022/03/23 09:32:48;;;;;;;23.23;21.02;;;;;;;;;;5024230;28;20431;-79
2022/03/23 09:35:14;;;;;;;23.88;21.40;;;;;;;;;;5026889;28;20448;-80
2022/03/23 09:37:50;;;;;;;24.40;21.80;;;;;;;;;;5024609;28;20859;-79
2022/03/23 09:40:17;;;;;;;23.38;20.90;;;;;;;;;;5025865;28;20438;-79
2022/03/23 09:42:44;;;;;;;23.92;21.25;;;;;;;;;;5024952;28;20440;-80
2022/03/23 09:45:12;;;;;;;24.13;21.63;;;;;;;;;;5026298;28;20873;-80
2022/03/23 09:47:39;;;;;;;23.77;21.23;;;;;;;;;;5023503;28;20466;-79
2022/03/23 09:50:06;;;;;;;23.40;21.20;;;;;;;;;;5024562;28;20431;-78
2022/03/23 09:52:33;;;;;;;25.00;21.40;;;;;;;;;;5026376;28;20436;-79
2022/03/23 09:54:59;;;;;;;23.10;20.60;;;;;;;;;;5024459;28;20855;-79
2022/03/23 09:57:25;;;;;;;23.15;20.85;;;;;;;;;;5021745;28;20431;-79
2022/03/23 09:59:51;;;;;;;23.70;21.40;;;;;;;;;;5025063;28;20438;-78
2022/03/23 10:02:33;;;;;;;24.00;21.60;;;;;;;;;;5024138;28;20559;-79
2022/03/23 10:05:17;;;;;;;24.73;22.33;;;;;;;;;;5025470;28;20430;-79
2022/03/23 10:07:48;;;;;;;25.73;23.13;;;;;;;;;;5024323;28;20439;-78
2022/03/23 10:10:47;;;;;;;23.65;21.25;;;;;;;;;;5023495;28;20534;-79
2022/03/23 10:13:32;;;;;;;24.73;22.13;;;;;;;;;;5025181;28;20435;-77
2022/03/23 10:16:17;;;;;;;23.85;21.38;;;;;;;;;;5024960;28;20866;-79
2022/03/23 10:18:51;;;;;;;24.40;21.95;;;;;;;;;;5025328;28;21013;-79
2022/03/23 10:21:17;;;;;;;24.02;21.50;;;;;;;;;;5025953;28;20466;-79
2022/03/23 10:24:15;;;;;;;22.88;20.58;;;;;;;;;;5024973;28;20432;-79
2022/03/23 10:26:43;;;;;;;24.17;21.58;;;;;;;;;;5024466;28;20500;-80
2022/03/23 10:29:19;;;;;;;24.63;22.27;;;;;;;;;;5021463;28;20814;-79
2022/03/23 10:31:45;;;;;;;24.52;21.92;;;;;;;;;;5022147;28;20440;-78
2022/03/23 10:34:11;;;;;;;23.73;21.00;;;;;;;;;;5024720;28;20490;-79
2022/03/23 10:36:51;;;;;;;22.88;20.48;;;;;;;;;;5024428;28;20560;-79
2022/03/23 10:39:18;;;;;;;22.83;20.52;;;;;;;;;;5023518;28;20979;-79
2022/03/23 10:41:56;;;;;;;22.80;20.50;;;;;;;;;;5023111;28;20969;-80
2022/03/23 10:44:22;;;;;;;22.63;20.42;;;;;;;;;;5022944;28;20435;-80
2022/03/23 10:46:48;;;;;;;26.27;21.50;;;;;;;;;;5023223;28;20416;-79
2022/03/23 10:49:15;;;;;;;23.63;21.23;;;;;;;;;;5024823;28;20522;-80
2022/03/23 10:51:43;;;;;;;24.92;22.23;;;;;;;;;;5025449;28;20443;-80
2022/03/23 10:54:14;;;;;;;23.20;20.90;;;;;;;;;;5023124;28;20435;-79
2022/03/23 10:56:40;;;;;;;22.23;19.73;;;;;;;;;;5023493;28;20905;-79
2022/03/23 10:59:21;;;;;;;22.27;19.88;;;;;;;;;;5023155;28;20434;-79
2022/03/23 11:01:58;;;;;;;23.95;20.50;;;;;;;;;;5023055;28;20487;-79
2022/03/23 11:04:28;;;;;;;23.15;20.58;;;;;;;;;;5025393;28;20486;-79
2022/03/23 11:06:56;;;;;;;23.80;21.30;;;;;;;;;;5024595;28;20419;-80
2022/03/23 11:18:05;;;;;;;26.15;23.00;;;;;;;;;;5023886;28;20472;-79
2022/03/23 11:20:39;;;;;;;25.80;23.10;;;;;;;;;;5023850;28;20433;-80
2022/03/23 11:23:15;;;;;;;26.77;22.38;;;;;;;;;;5024004;28;20476;-79
2022/03/23 11:25:41;;;;;;;24.70;22.02;;;;;;;;;;5024981;28;20508;-79
2022/03/23 11:28:08;;;;;;;27.17;22.45;;;;;;;;;;5024331;28;20479;-79
2022/03/23 11:30:37;;;;;;;24.92;22.25;;;;;;;;;;5024782;28;20438;-79
2022/03/23 11:33:03;;;;;;;23.73;21.33;;;;;;;;;;5021758;28;20431;-78
2022/03/23 11:35:30;;;;;;;25.87;21.57;;;;;;;;;;5025356;28;21028;-79
2022/03/23 11:37:57;;;;;;;25.70;23.00;;;;;;;;;;5023896;28;20441;-80
2022/03/23 11:40:24;;;;;;;23.70;21.30;;;;;;;;;;5024534;28;21012;-80
2022/03/23 11:42:52;;;;;;;24.15;21.17;;;;;;;;;;5022862;28;20438;-80
2022/03/23 11:45:18;;;;;;;28.42;19.25;;;;;;;;;;5024384;28;20473;-79
2022/03/23 11:47:52;;;;;;;24.57;20.77;;;;;;;;;;5021871;28;20427;-79
2022/03/23 11:50:25;;;;;;;23.42;20.70;;;;;;;;;;5022671;28;20436;-80
2022/03/23 11:52:55;;;;;;;27.77;20.90;;;;;;;;;;5021605;28;20458;-79
2022/03/23 11:55:40;;;;;;;27.60;19.60;;;;;;;;;;5023846;28;20425;-80
2022/03/23 11:58:15;;;;;;;23.45;19.10;;;;;;;;;;5023418;28;20455;-79
2022/03/23 12:00:43;;;;;;;21.23;17.33;;;;;;;;;;5023878;28;20440;-80
2022/03/23 12:03:11;;;;;;;25.65;19.42;;;;;;;;;;5023152;28;20436;-79
2022/03/23 12:05:48;;;;;;;22.95;20.40;;;;;;;;;;5023631;28;20535;-81
2022/03/23 12:08:14;;;;;;;21.65;19.35;;;;;;;;;;5022320;28;20453;-80
2022/03/23 12:10:43;;;;;;;24.80;19.75;;;;;;;;;;5023390;28;20457;-79
2022/03/23 12:13:13;;;;;;;23.20;19.25;;;;;;;;;;5024024;28;20428;-79
2022/03/23 12:15:54;;;;;;;21.03;18.43;;;;;;;;;;5022522;28;20435;-79
2022/03/23 12:18:37;;;;;;;23.60;17.03;;;;;;;;;;5020529;28;20430;-80
2022/03/23 12:21:04;;;;;;;22.40;16.95;;;;;;;;;;5025785;28;20442;-79
2022/03/23 12:23:33;;;;;;;22.50;17.70;;;;;;;;;;5027795;28;20926;-80
2022/03/23 12:26:05;;;;;;;25.25;18.10;;;;;;;;;;5028368;28;20431;-79
2022/03/23 12:28:38;;;;;;;25.10;19.77;;;;;;;;;;5024697;28;20430;-79
2022/03/23 12:31:08;;;;;;;21.85;18.00;;;;;;;;;;5028246;28;20439;-79
2022/03/23 12:33:55;;;;;;;21.77;17.23;;;;;;;;;;5025819;28;20431;-80
2022/03/23 12:36:56;;;;;;;22.60;17.40;;;;;;;;;;5030084;28;20493;-80
2022/03/23 12:39:26;;;;;;;22.55;19.13;;;;;;;;;;5027172;28;20428;-78
2022/03/23 12:41:52;;;;;;;21.23;17.20;;;;;;;;;;5028907;28;20427;-79
2022/03/23 12:44:27;;;;;;;23.50;18.77;;;;;;;;;;5026306;28;20485;-79
2022/03/23 12:46:53;;;;;;;24.20;17.60;;;;;;;;;;5028625;28;20434;-79
2022/03/23 12:58:01;;;;;;;27.63;18.65;;;;;;;;;;5029276;28;20494;-80
2022/03/23 13:00:28;;;;;;;25.53;18.80;;;;;;;;;;5026736;28;20437;-79
2022/03/23 13:03:18;;;;;;;22.95;18.63;;;;;;;;;;5029889;28;20431;-79
2022/03/23 13:06:00;;;;;;;21.23;16.48;;;;;;;;;;5014396;28;20435;-79
2022/03/23 13:08:47;;;;;;;22.85;18.48;;;;;;;;;;5029881;28;20492;-79
2022/03/23 13:11:14;;;;;;;23.27;16.83;;;;;;;;;;5029068;28;20487;-79
2022/03/23 13:13:41;;;;;;;22.85;17.00;;;;;;;;;;5028643;28;20421;-80
2022/03/23 13:16:08;;;;;;;22.48;17.52;;;;;;;;;;5028093;28;20477;-80
2022/03/23 13:18:36;;;;;;;24.48;18.55;;;;;;;;;;5027694;28;20434;-79
2022/03/23 13:21:03;;;;;;;22.55;18.92;;;;;;;;;;5029281;28;20431;-79
2022/03/23 13:23:29;;;;;;;25.90;17.80;;;;;;;;;;5026092;28;20478;-80
2022/03/23 13:26:04;;;;;;;24.60;17.73;;;;;;;;;;5030200;28;20432;-79
2022/03/23 13:28:32;;;;;;;22.20;16.50;;;;;;;;;;5026653;28;20427;-79
2022/03/23 13:30:59;;;;;;;21.70;17.50;;;;;;;;;;5028291;28;20435;-80
2022/03/23 13:33:26;;;;;;;20.60;16.10;;;;;;;;;;5027849;28;20521;-79
2022/03/23 13:35:54;;;;;;;23.10;16.00;;;;;;;;;;5029847;28;20425;-80
2022/03/23 13:38:20;;;;;;;22.52;16.00;;;;;;;;;;5028319;28;20506;-77
2022/03/23 13:43:32;;;;;;;21.63;15.60;;;;;;;;;;5030604;28;20824;-80
2022/03/23 13:45:59;;;;;;;19.80;15.23;;;;;;;;;;5030235;28;20500;-80
2022/03/23 13:48:30;;;;;;;24.73;16.30;;;;;;;;;;5026673;28;20449;-80
2022/03/23 13:50:58;;;;;;;20.60;15.93;;;;;;;;;;5030223;28;20468;-80
2022/03/23 13:53:24;;;;;;;22.40;16.92;;;;;;;;;;5029784;28;20463;-79
2022/03/23 13:55:51;;;;;;;24.20;17.30;;;;;;;;;;5029728;28;20430;-79
2022/03/23 13:58:18;;;;;;;22.67;16.43;;;;;;;;;;5025444;28;20489;-80
2022/03/23 14:00:48;;;;;;;25.20;17.40;;;;;;;;;;5027638;28;20440;-80
2022/03/23 14:03:16;;;;;;;22.13;18.05;;;;;;;;;;5027875;28;20459;-79
2022/03/23 14:06:01;;;;;;;25.33;16.85;;;;;;;;;;5026940;28;20486;-79
2022/03/23 14:08:28;;;;;;;24.03;16.47;;;;;;;;;;5024952;28;20471;-80
2022/03/23 14:10:54;;;;;;;21.13;15.98;;;;;;;;;;5027757;28;20964;-80
2022/03/23 14:13:20;;;;;;;20.23;14.32;;;;;;;;;;5027163;28;20464;-80
2022/03/23 14:15:52;;;;;;;22.52;14.90;;;;;;;;;;5058698;22;20503;-81
2022/03/23 14:18:22;;;;;;;21.48;15.10;;;;;;;;;;5060352;28;20429;-81
2022/03/23 14:20:51;;;;;;;19.00;14.63;;;;;;;;;;5063661;28;20427;-81
2022/03/23 14:23:18;;;;;;;22.63;14.25;;;;;;;;;;5059823;28;20520;-82
2022/03/23 14:25:45;;;;;;;20.50;12.70;;;;;;;;;;5060741;28;20518;-80
2022/03/23 14:28:16;;;;;;;21.03;13.47;;;;;;;;;;5060590;28;20990;-81
2022/03/23 14:30:47;;;;;;;21.42;13.80;;;;;;;;;;5055887;28;20437;-80
2022/03/23 14:33:18;;;;;;;20.47;13.70;;;;;;;;;;5060881;28;20431;-82
2022/03/23 14:35:44;;;;;;;22.77;14.75;;;;;;;;;;5063517;28;20483;-80
2022/03/23 14:38:12;;;;;;;22.45;14.82;;;;;;;;;;5061542;28;20434;-82
2022/03/23 14:40:38;;;;;;;20.20;15.50;;;;;;;;;;5058874;28;20864;-82
2022/03/23 14:43:06;;;;;;;21.42;15.18;;;;;;;;;;5061964;28;20456;-82
2022/03/23 14:45:33;;;;;;;19.00;13.73;;;;;;;;;;5063260;28;20436;-82
2022/03/23 14:48:00;;;;;;;21.00;12.97;;;;;;;;;;5061168;28;20428;-79
2022/03/23 14:50:28;;;;;;;22.38;14.80;;;;;;;;;;5063896;28;20946;-82
2022/03/23 14:52:54;;;;;;;24.10;15.27;;;;;;;;;;5060087;28;20435;-82